Time;durP1;ratioP1;P1;durP2;ratioP2;P2;SDS_P1;SDS_P2;PMS_P1;PMS_P2;Temp;Humidity;BMP_temperature;BMP_pressure;BME280_temperature;BME280_humidity;BME280_pressure;Samples;Min_cycle;Max_cycle;Signal;HPM_P1;HPM_P2
2023/12/11 00:02:08;;;;;;;;;;;;;;;9.36;100.00;99756.53;5116946;28;19923;-40
2023/12/11 00:04:33;;;;;;;;;;;;;;;9.41;100.00;99753.25;5116073;28;19915;-40
2023/12/11 00:06:58;;;;;;;;;;;;;;;9.42;100.00;99752.22;5115932;28;20006;-40
2023/12/11 00:09:24;;;;;;;;;;;;;;;9.49;100.00;99749.56;5119151;28;19927;-39
2023/12/11 00:11:49;;;;;;;;;;;;;;;9.54;100.00;99752.47;5115552;28;19927;-39
2023/12/11 00:14:14;;;;;;;;;;;;;;;9.60;100.00;99746.28;5115335;28;20023;-39
2023/12/11 00:16:40;;;;;;;;;;;;;;;9.62;100.00;99752.28;5115071;28;19919;-40
2023/12/11 00:19:05;;;;;;;;;;;;;;;9.68;100.00;99729.97;5115452;28;19963;-39
2023/12/11 00:21:30;;;;;;;;;;;;;;;9.69;100.00;99734.34;5119030;28;20004;-40
2023/12/11 00:23:55;;;;;;;;;;;;;;;9.69;100.00;99750.47;5120074;28;19920;-39
2023/12/11 00:26:22;;;;;;;;;;;;;;;9.72;100.00;99741.16;5118803;28;19919;-39
2023/12/11 00:28:47;;;;;;;;;;;;;;;9.76;100.00;99739.72;5114243;28;19965;-39
2023/12/11 00:31:13;;;;;;;;;;;;;;;9.82;100.00;99731.69;5115432;28;20371;-39
2023/12/11 00:33:38;;;;;;;;;;;;;;;9.84;100.00;99731.47;5114195;28;19920;-39
2023/12/11 00:36:04;;;;;;;;;;;;;;;9.86;100.00;99727.53;5114281;28;19942;-39
2023/12/11 00:38:29;;;;;;;;;;;;;;;9.86;100.00;99732.09;5113419;28;19924;-39
2023/12/11 00:40:54;;;;;;;;;;;;;;;9.89;100.00;99712.88;5113616;28;20011;-39
2023/12/11 00:43:19;;;;;;;;;;;;;;;9.87;100.00;99713.09;5111969;28;20273;-40
2023/12/11 00:45:45;;;;;;;;;;;;;;;9.91;100.00;99715.34;5113553;28;19943;-39
2023/12/11 00:48:10;;;;;;;;;;;;;;;9.90;100.00;99709.16;5113611;28;19920;-38
2023/12/11 00:50:35;;;;;;;;;;;;;;;9.91;100.00;99713.50;5113643;28;20364;-38
2023/12/11 00:53:01;;;;;;;;;;;;;;;9.89;100.00;99723.63;5113451;28;19927;-39
2023/12/11 00:55:26;;;;;;;;;;;;;;;9.92;100.00;99719.69;5113869;28;19919;-39
2023/12/11 00:57:51;;;;;;;;;;;;;;;9.91;100.00;99704.59;5113266;28;19919;-39
2023/12/11 01:00:17;;;;;;;;;;;;;;;9.87;100.00;99699.66;5112857;28;19959;-39
2023/12/11 01:02:42;;;;;;;;;;;;;;;9.89;100.00;99700.25;5116210;28;19915;-39
2023/12/11 01:05:08;;;;;;;;;;;;;;;9.89;100.00;99696.75;5114905;28;19920;-39
2023/12/11 01:07:33;;;;;;;;;;;;;;;9.85;100.00;99703.56;5114091;28;19916;-39
2023/12/11 01:09:58;;;;;;;;;;;;;;;9.87;100.00;99688.91;5041795;28;1823575;-38
2023/12/11 01:12:24;;;;;;;;;;;;;;;9.90;100.00;99687.66;5115124;28;19923;-40
2023/12/11 01:14:49;;;;;;;;;;;;;;;9.89;100.00;99684.13;5118102;28;20314;-39
2023/12/11 01:17:14;;;;;;;;;;;;;;;9.86;100.00;99681.03;5117960;28;19927;-40
2023/12/11 01:19:41;;;;;;;;;;;;;;;9.83;100.00;99687.63;5114602;28;19927;-39
2023/12/11 01:22:06;;;;;;;;;;;;;;;9.83;100.00;99665.31;5116164;28;20243;-39
2023/12/11 01:24:31;;;;;;;;;;;;;;;9.76;100.00;99672.53;5115217;27;19923;-38
2023/12/11 01:26:56;;;;;;;;;;;;;;;9.73;100.00;99665.72;5116155;28;19973;-39
2023/12/11 01:29:22;;;;;;;;;;;;;;;9.75;100.00;99666.34;5115967;28;20369;-39
2023/12/11 01:31:47;;;;;;;;;;;;;;;9.73;100.00;99657.66;5115899;28;19916;-39
2023/12/11 01:34:12;;;;;;;;;;;;;;;9.71;100.00;99653.53;5114288;28;19919;-39
2023/12/11 01:36:38;;;;;;;;;;;;;;;9.72;100.00;99664.06;5113459;28;19926;-39
2023/12/11 01:39:03;;;;;;;;;;;;;;;9.69;100.00;99664.50;5114946;28;19961;-39
2023/12/11 01:41:28;;;;;;;;;;;;;;;9.65;100.00;99663.22;5115248;28;20373;-38
2023/12/11 01:43:54;;;;;;;;;;;;;;;9.59;100.00;99669.44;5115177;28;19919;-38
2023/12/11 01:46:19;;;;;;;;;;;;;;;9.55;100.00;99668.19;5117828;28;19920;-39
2023/12/11 01:48:45;;;;;;;;;;;;;;;9.50;100.00;99662.59;5120694;28;20378;-39
2023/12/11 01:51:10;;;;;;;;;;;;;;;9.45;100.00;99653.28;5120877;28;19920;-40
2023/12/11 01:53:35;;;;;;;;;;;;;;;9.49;100.00;99659.06;5117651;28;19931;-40
2023/12/11 01:56:01;;;;;;;;;;;;;;;9.52;100.00;99644.41;5117300;28;19920;-40
2023/12/11 01:58:29;;;;;;;;;;;;;;;9.55;100.00;99647.50;5113894;28;19923;-40
2023/12/11 02:00:54;;;;;;;;;;;;;;;9.55;100.00;99654.75;5114135;28;19916;-39
2023/12/11 02:03:19;;;;;;;;;;;;;;;9.58;100.00;99647.09;5114058;28;20022;-39
2023/12/11 02:05:45;;;;;;;;;;;;;;;9.58;100.00;99640.91;5114076;28;19916;-39
2023/12/11 02:08:10;;;;;;;;;;;;;;;9.61;100.00;99635.13;5113261;28;20024;-39
2023/12/11 02:10:36;;;;;;;;;;;;;;;9.63;100.00;99627.69;5113172;28;20006;-39
2023/12/11 02:13:01;;;;;;;;;;;;;;;9.64;100.00;99630.19;5112838;28;19920;-40
2023/12/11 02:15:36;;;;;;;;;;;;;;;9.68;100.00;99622.53;5111406;28;19966;-40
2023/12/11 02:18:01;;;;;;;;;;;;;;;9.71;100.00;99626.66;5112201;28;19954;-40
2023/12/11 02:20:27;;;;;;;;;;;;;;;9.75;100.00;99609.94;5113529;28;19916;-40
2023/12/11 02:22:52;;;;;;;;;;;;;;;9.77;100.00;99602.50;5114497;28;19926;-40
2023/12/11 02:25:17;;;;;;;;;;;;;;;9.83;100.00;99600.84;5116691;28;20342;-40
2023/12/11 02:27:42;;;;;;;;;;;;;;;9.82;100.00;99594.63;5119788;28;19927;-40
2023/12/11 02:30:08;;;;;;;;;;;;;;;9.83;100.00;99607.03;5118941;28;19922;-40
2023/12/11 02:32:33;;;;;;;;;;;;;;;9.86;100.00;99600.41;5115803;28;19919;-39
2023/12/11 02:34:58;;;;;;;;;;;;;;;9.88;100.00;99598.34;5113239;28;19919;-39
2023/12/11 02:37:23;;;;;;;;;;;;;;;9.89;100.00;99589.25;5113011;28;20438;-38
2023/12/11 02:39:49;;;;;;;;;;;;;;;9.91;100.00;99595.25;5114588;28;19923;-39
2023/12/11 02:42:14;;;;;;;;;;;;;;;9.92;100.00;99593.38;5117501;28;19920;-39
2023/12/11 02:44:39;;;;;;;;;;;;;;;9.94;100.00;99572.50;5118495;28;19915;-39
2023/12/11 02:47:05;;;;;;;;;;;;;;;9.98;100.00;99554.91;5106598;28;19924;-38
2023/12/11 02:49:30;;;;;;;;;;;;;;;10.04;100.00;99554.09;5110457;28;19961;-38
2023/12/11 02:51:55;;;;;;;;;;;;;;;10.07;100.00;99564.41;5112930;28;19927;-39
2023/12/11 02:54:20;;;;;;;;;;;;;;;10.07;100.00;99561.72;5113175;28;19920;-39
2023/12/11 02:56:46;;;;;;;;;;;;;;;10.09;100.00;99559.66;5111861;28;19920;-39
2023/12/11 02:59:11;;;;;;;;;;;;;;;10.14;100.00;99548.25;5112236;28;19920;-39
2023/12/11 03:01:39;;;;;;;;;;;;;;;10.13;100.00;99547.44;5112897;28;20362;-39
2023/12/11 03:04:05;;;;;;;;;;;;;;;10.10;100.00;99545.16;5112580;28;19924;-39
2023/12/11 03:06:30;;;;;;;;;;;;;;;10.09;100.00;99548.91;5111991;28;19920;-39
2023/12/11 03:08:55;;;;;;;;;;;;;;;10.03;100.00;99536.28;5111992;28;20015;-39
2023/12/11 03:11:20;;;;;;;;;;;;;;;10.01;100.00;99538.38;5112565;28;20397;-39
2023/12/11 03:13:45;;;;;;;;;;;;;;;9.99;100.00;99548.50;5113822;28;20319;-40
2023/12/11 03:16:15;;;;;;;;;;;;;;;9.95;100.00;99547.25;5113614;28;19964;-39
2023/12/11 03:18:41;;;;;;;;;;;;;;;9.88;100.00;99540.03;5112511;28;19920;-39
2023/12/11 03:21:06;;;;;;;;;;;;;;;9.84;100.00;99543.34;5112529;28;19926;-39
2023/12/11 03:23:31;;;;;;;;;;;;;;;9.82;100.00;99546.28;5111280;28;20293;-40
2023/12/11 03:25:57;;;;;;;;;;;;;;;9.79;100.00;99552.03;5111694;28;19954;-39
2023/12/11 03:28:24;;;;;;;;;;;;;;;9.80;100.00;99526.84;5113159;28;19932;-39
2023/12/11 03:30:49;;;;;;;;;;;;;;;9.70;100.00;99537.19;5116386;28;19965;-40
2023/12/11 03:33:16;;;;;;;;;;;;;;;9.60;100.00;99537.59;5115856;28;19924;-39
2023/12/11 03:35:41;;;;;;;;;;;;;;;9.56;100.00;99549.81;5115022;28;20069;-39
2023/12/11 03:38:06;;;;;;;;;;;;;;;9.56;100.00;99546.28;5115520;28;19920;-37
2023/12/11 03:40:31;;;;;;;;;;;;;;;9.63;100.00;99549.78;5114919;28;19924;-38
2023/12/11 03:42:57;;;;;;;;;;;;;;;9.62;100.00;99529.34;5114958;28;19920;-39
2023/12/11 03:45:22;;;;;;;;;;;;;;;9.61;100.00;99530.34;5112961;28;19920;-39
2023/12/11 03:47:48;;;;;;;;;;;;;;;9.57;100.00;99532.63;5112860;28;19920;-38
2023/12/11 03:50:13;;;;;;;;;;;;;;;9.57;100.00;99516.53;5112439;28;19989;-39
2023/12/11 03:52:38;;;;;;;;;;;;;;;9.58;100.00;99522.72;5112923;28;20369;-39
2023/12/11 03:55:04;;;;;;;;;;;;;;;9.60;100.00;99515.28;5113032;28;19919;-39
2023/12/11 03:57:29;;;;;;;;;;;;;;;9.59;100.00;99522.53;5112364;28;19923;-38
2023/12/11 03:59:54;;;;;;;;;;;;;;;9.65;100.00;99523.53;5113682;28;19927;-39
2023/12/11 04:02:20;;;;;;;;;;;;;;;9.69;100.00;99519.41;5112708;28;19919;-38
2023/12/11 04:04:45;;;;;;;;;;;;;;;9.69;100.00;99511.34;5113466;28;19919;-39
2023/12/11 04:07:10;;;;;;;;;;;;;;;9.70;100.00;99521.06;5114458;28;20260;-40
2023/12/11 04:09:35;;;;;;;;;;;;;;;9.71;100.00;99509.25;5114762;28;20038;-39
2023/12/11 04:12:01;;;;;;;;;;;;;;;9.72;100.00;99519.00;5116001;28;19916;-39
2023/12/11 04:14:26;;;;;;;;;;;;;;;9.76;100.00;99497.91;5115577;28;19923;-39
2023/12/11 04:16:51;;;;;;;;;;;;;;;9.76;100.00;99506.78;5117110;28;19920;-40
2023/12/11 04:19:17;;;;;;;;;;;;;;;9.77;100.00;99511.13;5121202;28;19958;-38
2023/12/11 04:21:42;;;;;;;;;;;;;;;9.80;100.00;99510.72;5120087;28;19916;-40
2023/12/11 04:24:07;;;;;;;;;;;;;;;9.84;100.00;99506.56;5118804;28;19926;-39
2023/12/11 04:26:32;;;;;;;;;;;;;;;9.87;100.00;99497.25;5115023;28;19965;-39
2023/12/11 04:28:58;;;;;;;;;;;;;;;9.90;100.00;99488.78;5114936;28;19919;-39
2023/12/11 04:31:23;;;;;;;;;;;;;;;9.93;100.00;99476.78;5114810;28;19973;-38
2023/12/11 04:33:51;;;;;;;;;;;;;;;9.94;100.00;99489.19;5114853;28;19920;-39
2023/12/11 04:36:17;;;;;;;;;;;;;;;9.91;100.00;99486.91;5114821;28;19924;-39
2023/12/11 04:38:42;;;;;;;;;;;;;;;9.85;100.00;99481.34;5114716;28;19968;-39
2023/12/11 04:41:07;;;;;;;;;;;;;;;9.85;100.00;99485.91;5115226;28;20015;-39
2023/12/11 04:43:36;;;;;;;;;;;;;;;9.82;100.00;99476.41;5115376;28;19919;-39
2023/12/11 04:46:01;;;;;;;;;;;;;;;9.78;100.00;99502.03;5113298;28;19947;-39
2023/12/11 04:48:26;;;;;;;;;;;;;;;9.73;100.00;99466.91;5114071;28;19920;-39
2023/12/11 04:50:51;;;;;;;;;;;;;;;9.72;100.00;99485.94;5115605;28;19920;-38
2023/12/11 04:53:16;;;;;;;;;;;;;;;9.63;100.00;99483.44;5114703;28;19971;-39
2023/12/11 04:55:42;;;;;;;;;;;;;;;9.59;100.00;99486.78;5114633;28;19916;-38
2023/12/11 04:58:07;;;;;;;;;;;;;;;9.57;100.00;99484.28;5114166;28;20289;-39
2023/12/11 05:00:32;;;;;;;;;;;;;;;9.58;100.00;99479.75;5113644;28;19919;-39
2023/12/11 05:02:57;;;;;;;;;;;;;;;9.65;100.00;99459.88;5114476;28;19920;-39
2023/12/11 05:05:23;;;;;;;;;;;;;;;9.69;100.00;99457.63;5114620;28;20382;-39
2023/12/11 05:07:48;;;;;;;;;;;;;;;9.69;100.00;99465.69;5112266;28;19920;-39
2023/12/11 05:10:13;;;;;;;;;;;;;;;9.72;100.00;99465.25;5113754;28;19924;-39
2023/12/11 05:12:38;;;;;;;;;;;;;;;9.73;100.00;99456.16;5113789;28;20134;-39
2023/12/11 05:15:04;;;;;;;;;;;;;;;9.73;100.00;99474.97;5113764;28;19955;-39
2023/12/11 05:17:29;;;;;;;;;;;;;;;9.72;100.00;99459.88;5114390;28;19923;-39
2023/12/11 05:19:55;;;;;;;;;;;;;;;9.76;100.00;99458.41;5114498;28;19967;-39
2023/12/11 05:22:20;;;;;;;;;;;;;;;9.74;100.00;99460.50;5114495;28;19934;-39
2023/12/11 05:24:45;;;;;;;;;;;;;;;9.76;100.00;99460.28;5113762;28;19961;-39
2023/12/11 05:27:11;;;;;;;;;;;;;;;9.73;100.00;99474.97;5110638;28;19920;-39
2023/12/11 05:29:37;;;;;;;;;;;;;;;9.74;100.00;99456.97;5112933;27;20314;-40
2023/12/11 05:32:02;;;;;;;;;;;;;;;9.72;100.00;99448.31;5109574;28;19928;-39
2023/12/11 05:34:27;;;;;;;;;;;;;;;9.69;100.00;99449.56;5107812;28;19930;-39
2023/12/11 05:36:53;;;;;;;;;;;;;;;9.65;100.00;99446.47;5103053;28;19920;-39
2023/12/11 05:39:19;;;;;;;;;;;;;;;9.64;100.00;99444.00;5111634;28;19924;-38
2023/12/11 05:41:44;;;;;;;;;;;;;;;9.66;100.00;99441.91;5111728;28;19919;-39
2023/12/11 05:44:09;;;;;;;;;;;;;;;9.63;100.00;99456.59;5111831;28;19919;-38
2023/12/11 05:46:34;;;;;;;;;;;;;;;9.66;100.00;99439.22;5112921;28;19916;-38
2023/12/11 05:49:00;;;;;;;;;;;;;;;9.71;100.00;99454.72;5115461;28;20038;-39
2023/12/11 05:51:27;;;;;;;;;;;;;;;9.80;100.00;99440.84;5114401;28;20408;-40
2023/12/11 05:53:52;;;;;;;;;;;;;;;9.83;100.00;99447.66;5114293;28;20022;-39
2023/12/11 05:56:17;;;;;;;;;;;;;;;9.89;100.00;99436.88;5111786;28;20010;-39
2023/12/11 05:58:43;;;;;;;;;;;;;;;9.83;100.00;99440.44;5113463;28;20370;-40
2023/12/11 06:01:08;;;;;;;;;;;;;;;9.82;100.00;99444.16;5113606;28;20370;-38
2023/12/11 06:03:34;;;;;;;;;;;;;;;9.79;100.00;99452.63;5113975;28;19916;-39
2023/12/11 06:05:59;;;;;;;;;;;;;;;9.69;100.00;99473.75;5112699;28;19923;-40
2023/12/11 06:08:25;;;;;;;;;;;;;;;9.51;100.00;99463.66;5112451;28;19927;-37
2023/12/11 06:10:50;;;;;;;;;;;;;;;9.35;100.00;99486.38;5112399;28;19920;-38
2023/12/11 06:13:15;;;;;;;;;;;;;;;9.23;100.00;99498.75;5114609;28;20270;-38
2023/12/11 06:15:41;;;;;;;;;;;;;;;9.17;100.00;99521.91;5110846;28;20007;-38
2023/12/11 06:18:06;;;;;;;;;;;;;;;9.14;100.00;99519.63;5141280;27;19919;-39
2023/12/11 06:20:33;;;;;;;;;;;;;;;9.07;100.00;99523.31;5112374;28;19927;-39
2023/12/11 06:22:58;;;;;;;;;;;;;;;9.06;100.00;99524.34;5113483;28;20053;-38
2023/12/11 06:25:23;;;;;;;;;;;;;;;9.01;100.00;99531.16;5112100;28;19920;-39
2023/12/11 06:27:48;;;;;;;;;;;;;;;8.96;100.00;99536.31;5112853;28;20077;-38
2023/12/11 06:30:14;;;;;;;;;;;;;;;8.95;100.00;99553.47;5113185;28;19920;-39
2023/12/11 06:32:39;;;;;;;;;;;;;;;9.00;100.00;99548.31;5112429;28;20343;-39
2023/12/11 06:35:05;;;;;;;;;;;;;;;8.99;100.00;99556.53;5112768;28;19998;-38
2023/12/11 06:37:30;;;;;;;;;;;;;;;9.01;100.00;99570.59;5112831;28;19927;-39
2023/12/11 06:39:55;;;;;;;;;;;;;;;9.02;100.00;99548.91;5112655;28;20324;-39
2023/12/11 06:42:20;;;;;;;;;;;;;;;9.03;100.00;99581.97;5107831;28;19919;-40
2023/12/11 06:44:46;;;;;;;;;;;;;;;8.99;100.00;99592.25;5111842;28;19924;-39
2023/12/11 06:47:12;;;;;;;;;;;;;;;8.97;100.00;99591.63;5111840;28;20319;-40
2023/12/11 06:49:37;;;;;;;;;;;;;;;8.96;100.00;99573.88;5101149;28;20366;-40
2023/12/11 06:52:03;;;;;;;;;;;;;;;8.98;100.00;99579.06;5113347;28;20064;-39
2023/12/11 06:54:28;;;;;;;;;;;;;;;9.01;100.00;99592.88;5112805;28;19927;-38
2023/12/11 06:56:53;;;;;;;;;;;;;;;9.07;100.00;99585.06;5111645;28;20052;-40
2023/12/11 06:59:19;;;;;;;;;;;;;;;9.08;100.00;99602.81;5111756;28;19927;-39
2023/12/11 07:01:44;;;;;;;;;;;;;;;9.10;100.00;99598.06;5112348;28;19996;-40
2023/12/11 07:04:09;;;;;;;;;;;;;;;9.12;100.00;99607.56;5112708;28;20026;-39
2023/12/11 07:06:34;;;;;;;;;;;;;;;9.12;100.00;99594.16;5111712;28;19927;-40
2023/12/11 07:09:00;;;;;;;;;;;;;;;9.06;100.00;99611.06;5109317;28;20401;-39
2023/12/11 07:11:25;;;;;;;;;;;;;;;9.10;100.00;99611.47;5111864;28;19927;-39
2023/12/11 07:13:51;;;;;;;;;;;;;;;9.08;100.00;99624.28;5111265;28;19977;-40
2023/12/11 07:16:16;;;;;;;;;;;;;;;9.18;100.00;99614.81;5110254;28;19917;-39
2023/12/11 07:18:41;;;;;;;;;;;;;;;9.24;100.00;99621.22;5111563;28;20348;-39
2023/12/11 07:21:08;;;;;;;;;;;;;;;9.27;100.00;99612.78;5109935;28;20017;-39
2023/12/11 07:23:33;;;;;;;;;;;;;;;9.30;100.00;99611.53;5111962;28;19920;-38
2023/12/11 07:25:59;;;;;;;;;;;;;;;9.31;100.00;99648.09;5096461;28;19961;-39
2023/12/11 07:28:24;;;;;;;;;;;;;;;9.26;100.00;99654.06;5107929;28;19920;-40
2023/12/11 07:30:49;;;;;;;;;;;;;;;9.23;100.00;99662.53;5109157;28;19992;-40
2023/12/11 07:33:14;;;;;;;;;;;;;;;9.25;100.00;99655.09;5109660;28;19934;-39
2023/12/11 07:35:40;;;;;;;;;;;;;;;9.23;100.00;99670.56;5106679;28;19951;-39
2023/12/11 07:38:06;;;;;;;;;;;;;;;9.19;100.00;99674.72;5112549;28;19915;-42
2023/12/11 07:40:31;;;;;;;;;;;;;;;9.16;100.00;99691.19;5120994;27;19920;-41
2023/12/11 07:42:56;;;;;;;;;;;;;;;9.09;100.00;99687.69;5122603;27;19911;-43
2023/12/11 07:45:22;;;;;;;;;;;;;;;9.01;100.00;99710.97;5098882;27;19955;-44
2023/12/11 07:47:47;;;;;;;;;;;;;;;8.96;100.00;99717.97;5123766;27;19916;-44
2023/12/11 07:50:12;;;;;;;;;;;;;;;8.91;100.00;99737.34;5120079;27;20350;-45
2023/12/11 07:52:37;;;;;;;;;;;;;;;8.87;100.00;99756.72;5113238;27;19924;-45
2023/12/11 07:55:03;;;;;;;;;;;;;;;8.84;100.00;99757.94;5114419;28;19918;-44
2023/12/11 07:57:28;;;;;;;;;;;;;;;8.83;100.00;99766.19;5114582;27;20357;-44
2023/12/11 07:59:53;;;;;;;;;;;;;;;8.78;100.00;99772.97;5113843;28;20366;-45
2023/12/11 08:02:19;;;;;;;;;;;;;;;8.76;100.00;99790.28;5114372;28;20362;-45
2023/12/11 08:04:44;;;;;;;;;;;;;;;8.73;100.00;99788.81;5120906;27;19965;-44
2023/12/11 08:07:09;;;;;;;;;;;;;;;8.75;100.00;99796.69;5120308;27;19923;-43
2023/12/11 08:09:36;;;;;;;;;;;;;;;8.71;100.00;99788.19;5116201;28;20434;-41
2023/12/11 08:12:01;;;;;;;;;;;;;;;8.72;100.00;99803.25;5113650;27;20479;-43
2023/12/11 08:14:26;;;;;;;;;;;;;;;8.68;100.00;99801.16;5116824;28;19924;-42
2023/12/11 08:16:51;;;;;;;;;;;;;;;8.72;100.00;99826.59;5117751;27;19924;-43
2023/12/11 08:19:17;;;;;;;;;;;;;;;8.70;100.00;99831.31;5116400;28;19916;-43
2023/12/11 08:21:42;;;;;;;;;;;;;;;8.69;100.00;99829.63;5112117;28;19973;-43
2023/12/11 08:24:07;;;;;;;;;;;;;;;8.71;100.00;99824.91;5103113;27;19924;-42
2023/12/11 08:26:32;;;;;;;;;;;;;;;8.72;100.00;99840.00;5114283;28;19923;-42
2023/12/11 08:28:58;;;;;;;;;;;;;;;8.74;100.00;99837.94;5113761;28;20298;-41
2023/12/11 08:31:23;;;;;;;;;;;;;;;8.72;100.00;99840.81;5096419;28;19942;-42
2023/12/11 08:33:48;;;;;;;;;;;;;;;8.75;100.00;99850.34;5106329;27;19931;-42
2023/12/11 08:36:13;;;;;;;;;;;;;;;8.79;100.00;99856.94;5110200;27;20382;-41
2023/12/11 08:38:38;;;;;;;;;;;;;;;8.77;100.00;99854.47;5108089;27;19993;-41
2023/12/11 08:41:04;;;;;;;;;;;;;;;8.81;100.00;99857.59;5103866;28;19924;-41
2023/12/11 08:43:29;;;;;;;;;;;;;;;8.85;100.00;99866.09;5103743;27;20050;-40
2023/12/11 08:45:54;;;;;;;;;;;;;;;8.87;100.00;99862.16;5110245;27;19971;-43
2023/12/11 08:48:20;;;;;;;;;;;;;;;8.89;100.00;99878.91;5105240;27;20086;-43
2023/12/11 08:50:47;;;;;;;;;;;;;;;8.91;100.00;99873.38;5102528;28;19923;-41
2023/12/11 08:53:12;;;;;;;;;;;;;;;8.91;100.00;99881.41;5108669;27;20014;-43
2023/12/11 08:55:38;;;;;;;;;;;;;;;8.95;100.00;99891.56;5109518;28;20007;-43
2023/12/11 08:58:03;;;;;;;;;;;;;;;8.98;100.00;99887.66;5108925;27;20107;-42
2023/12/11 09:00:29;;;;;;;;;;;;;;;8.99;100.00;99908.94;5105175;28;20343;-43
2023/12/11 09:02:54;;;;;;;;;;;;;;;9.04;100.00;99918.25;5086054;28;19946;-42
2023/12/11 09:05:19;;;;;;;;;;;;;;;9.05;100.00;99920.75;5106150;28;19965;-41
2023/12/11 09:07:45;;;;;;;;;;;;;;;9.10;100.00;99917.47;5100872;28;19973;-43
2023/12/11 09:10:10;;;;;;;;;;;;;;;9.13;100.00;99934.00;5106542;28;19920;-42
2023/12/11 09:12:36;;;;;;;;;;;;;;;9.14;100.00;99943.75;5107602;28;19927;-40
2023/12/11 09:15:02;;;;;;;;;;;;;;;9.15;100.00;99933.81;5105945;28;20362;-42
2023/12/11 09:17:28;;;;;;;;;;;;;;;9.22;100.00;99948.13;5100497;28;20123;-42
2023/12/11 09:19:53;;;;;;;;;;;;;;;9.22;100.00;99954.34;5105985;28;20022;-42
2023/12/11 09:22:18;;;;;;;;;;;;;;;9.26;100.00;99959.31;5106179;28;19983;-41
2023/12/11 09:24:43;;;;;;;;;;;;;;;9.31;100.00;99951.50;5105443;28;19920;-41
2023/12/11 09:27:09;;;;;;;;;;;;;;;9.33;100.00;99955.66;5107521;28;19919;-44
2023/12/11 09:29:35;;;;;;;;;;;;;;;9.36;100.00;99957.94;5106563;28;19920;-42
2023/12/11 09:32:00;;;;;;;;;;;;;;;9.36;100.00;99982.09;5108523;27;20041;-43
2023/12/11 09:34:25;;;;;;;;;;;;;;;9.37;100.00;99977.56;5106347;27;20026;-42
2023/12/11 09:36:50;;;;;;;;;;;;;;;9.35;100.00;99985.00;5105141;27;19920;-42
2023/12/11 09:39:16;;;;;;;;;;;;;;;9.35;100.00;99987.69;5102948;27;19949;-42
2023/12/11 09:41:41;;;;;;;;;;;;;;;9.35;100.00;99993.88;5101428;28;19966;-42
2023/12/11 09:44:07;;;;;;;;;;;;;;;9.37;100.00;100005.28;5091050;27;19920;-42
2023/12/11 09:46:38;;;;;;;;;;;;;;;9.36;100.00;100000.91;5087837;28;19982;-43
2023/12/11 09:49:03;;;;;;;;;;;;;;;9.36;100.00;100019.72;5107237;27;20460;-42
2023/12/11 09:51:29;;;;;;;;;;;;;;;9.37;100.00;100015.16;5101718;27;20077;-42
2023/12/11 09:53:54;;;;;;;;;;;;;;;9.31;100.00;100024.81;5107363;27;19946;-43
2023/12/11 09:56:19;;;;;;;;;;;;;;;9.35;100.00;100023.44;5101023;27;20278;-41
2023/12/11 09:58:45;;;;;;;;;;;;;;;9.30;100.00;100047.34;5104052;27;19978;-43
2023/12/11 10:01:13;;;;;;;;;;;;;;;9.32;100.00;100045.31;5102639;27;20266;-43
2023/12/11 10:03:38;;;;;;;;;;;;;;;9.26;100.00;100051.41;5102393;28;20404;-41
2023/12/11 10:06:04;;;;;;;;;;;;;;;9.25;100.00;100052.47;5105472;27;19924;-44
2023/12/11 10:08:29;;;;;;;;;;;;;;;9.25;100.00;100049.78;5107625;28;20412;-40
2023/12/11 10:11:07;;;;;;;;;;;;;;;9.21;100.00;100075.34;5106400;27;20499;-42
2023/12/11 10:13:32;;;;;;;;;;;;;;;9.21;100.00;100078.03;5098779;27;19976;-45
2023/12/11 10:15:58;;;;;;;;;;;;;;;9.19;100.00;100072.03;5099138;28;20277;-41
2023/12/11 10:18:23;;;;;;;;;;;;;;;9.19;100.00;100080.09;5095901;27;20018;-42
2023/12/11 10:20:52;;;;;;;;;;;;;;;9.18;100.00;100086.47;5101191;27;19931;-41
2023/12/11 10:23:18;;;;;;;;;;;;;;;9.16;100.00;100101.91;5094500;27;20299;-41
2023/12/11 10:25:47;;;;;;;;;;;;;;;9.16;100.00;100101.91;5099081;27;19919;-41
2023/12/11 10:28:13;;;;;;;;;;;;;;;9.16;100.00;100100.09;5096367;28;19923;-43
2023/12/11 10:30:47;;;;;;;;;;;;;;;9.20;100.00;100106.72;5100454;28;20312;-42
2023/12/11 10:33:13;;;;;;;;;;;;;;;9.21;100.00;100115.59;5093952;28;19965;-42
2023/12/11 10:35:39;;;;;;;;;;;;;;;9.22;100.00;100110.06;5099262;28;19919;-43
2023/12/11 10:38:04;;;;;;;;;;;;;;;9.23;100.00;100121.63;5102058;28;19966;-43
2023/12/11 10:40:37;;;;;;;;;;;;;;;9.21;100.00;100123.66;5098333;28;19985;-42
2023/12/11 10:43:02;;;;;;;;;;;;;;;9.26;100.00;100123.91;5101476;28;19974;-42
2023/12/11 10:45:27;;;;;;;;;;;;;;;9.29;100.00;100128.06;5092730;28;19962;-43
2023/12/11 10:47:52;;;;;;;;;;;;;;;9.29;100.00;100131.59;5102724;28;19928;-45
2023/12/11 10:50:18;;;;;;;;;;;;;;;9.31;100.00;100123.34;5100345;28;20006;-41
2023/12/11 10:52:43;;;;;;;;;;;;;;;9.31;100.00;100129.56;5092832;28;20082;-41
2023/12/11 10:55:09;;;;;;;;;;;;;;;9.30;100.00;100125.22;5091059;28;19923;-44
2023/12/11 10:57:34;;;;;;;;;;;;;;;9.37;100.00;100120.75;5100461;28;19942;-43
2023/12/11 10:59:59;;;;;;;;;;;;;;;9.41;100.00;100118.50;5090342;28;20470;-42
2023/12/11 11:02:24;;;;;;;;;;;;;;;9.47;100.00;100119.59;5102239;28;20456;-41
2023/12/11 11:04:49;;;;;;;;;;;;;;;9.53;100.00;100126.84;5072195;28;20395;-43
2023/12/11 11:07:35;;;;;;;;;;;;;;;9.53;100.00;100130.41;5099218;28;19931;-42
2023/12/11 11:10:03;;;;;;;;;;;;;;;9.47;100.00;100144.56;5095096;28;19934;-40
2023/12/11 11:12:40;;;;;;;;;;;;;;;9.43;100.00;100148.69;5112134;27;19928;-41
2023/12/11 11:15:08;;;;;;;;;;;;;;;9.44;100.00;100151.16;5113913;28;19922;-41
2023/12/11 11:17:52;;;;;;;;;;;;;;;9.38;100.00;100151.94;5115892;28;19920;-42
2023/12/11 11:20:17;;;;;;;;;;;;;;;9.41;100.00;100170.34;5115597;28;20326;-42
2023/12/11 11:22:42;;;;;;;;;;;;;;;9.43;100.00;100170.19;5114557;27;20098;-41
2023/12/11 11:25:26;;;;;;;;;;;;;;;9.41;100.00;100173.03;5113156;28;19994;-42
2023/12/11 11:27:51;;;;;;;;;;;;;;;9.37;100.00;100155.66;5114146;27;19988;-42
2023/12/11 11:30:45;;;;;;;;;;;;;;;9.40;100.00;100171.38;5115528;28;19924;-43
2023/12/11 11:33:11;;;;;;;;;;;;;;;9.41;100.00;100173.03;5097954;28;19919;-41
2023/12/11 11:35:45;;;;;;;;;;;;;;;9.41;100.00;100178.41;5114796;28;19960;-42
2023/12/11 11:38:10;;;;;;;;;;;;;;;9.41;100.00;100173.03;5113349;28;19976;-41
2023/12/11 11:40:35;;;;;;;;;;;;;;;9.45;100.00;100173.47;5115800;28;19955;-42
2023/12/11 11:43:01;;;;;;;;;;;;;;;9.46;100.00;100175.16;5110379;28;19926;-44
2023/12/11 11:45:26;;;;;;;;;;;;;;;9.45;100.00;100181.53;5116776;28;19930;-42
2023/12/11 11:47:51;;;;;;;;;;;;;;;9.50;100.00;100173.75;5115713;28;20019;-43
2023/12/11 11:50:18;;;;;;;;;;;;;;;9.49;100.00;100185.53;5116295;28;20046;-42
2023/12/11 11:52:43;;;;;;;;;;;;;;;9.50;100.00;100194.41;5116841;28;20319;-41
2023/12/11 11:55:11;;;;;;;;;;;;;;;9.52;100.00;100187.00;5118091;28;19936;-41
2023/12/11 11:57:36;;;;;;;;;;;;;;;9.58;100.00;100195.09;5105532;27;19920;-41
2023/12/11 12:00:01;;;;;;;;;;;;;;;9.73;100.00;100191.53;5117318;28;19923;-42
2023/12/11 12:02:27;;;;;;;;;;;;;;;9.81;100.00;100196.78;5117897;28;19920;-41
2023/12/11 12:04:52;;;;;;;;;;;;;;;9.82;100.00;100204.66;5116111;28;19916;-41
2023/12/11 12:07:17;;;;;;;;;;;;;;;9.89;100.00;100200.16;5116550;28;19927;-41
2023/12/11 12:09:45;;;;;;;;;;;;;;;9.93;100.00;100202.47;5116289;28;19919;-41
2023/12/11 12:12:13;;;;;;;;;;;;;;;9.81;100.00;100199.47;5115843;28;19930;-42
2023/12/11 12:14:39;;;;;;;;;;;;;;;9.72;100.00;100201.47;5115016;28;20320;-42
2023/12/11 12:17:08;;;;;;;;;;;;;;;9.69;100.00;100215.28;5115071;27;19927;-39
2023/12/11 12:19:33;;;;;;;;;;;;;;;9.70;100.00;100221.47;5114672;28;20023;-43
2023/12/11 12:21:58;;;;;;;;;;;;;;;9.58;100.00;100221.13;5114428;28;20025;-43
2023/12/11 12:24:24;;;;;;;;;;;;;;;9.48;100.00;100226.00;5114984;28;20266;-44
2023/12/11 12:26:52;;;;;;;;;;;;;;;9.44;100.00;100237.13;5114531;28;19973;-44
2023/12/11 12:29:17;;;;;;;;;;;;;;;9.41;100.00;100242.88;5096850;28;20299;-43
2023/12/11 12:31:42;;;;;;;;;;;;;;;9.37;100.00;100244.28;5113852;27;19946;-43
2023/12/11 12:34:07;;;;;;;;;;;;;;;9.38;100.00;100253.16;5113366;28;20362;-45
2023/12/11 12:36:33;;;;;;;;;;;;;;;9.38;100.00;100247.78;5114226;28;19955;-43